createdAt,value
2022-12-08T00:00:07.497Z,1.2
2022-12-08T00:01:07.770Z,1.2
2022-12-08T00:02:08.398Z,1.2
2022-12-08T00:03:09.316Z,1.2
2022-12-08T00:04:09.886Z,1.2
2022-12-08T00:05:10.024Z,1.2
2022-12-08T00:06:10.165Z,1.2
2022-12-08T00:07:10.303Z,1.2
2022-12-08T00:08:10.673Z,1.3
2022-12-08T00:09:10.980Z,1.3
2022-12-08T00:10:49.223Z,1.3
2022-12-08T00:11:50.303Z,1.3
2022-12-08T00:12:50.458Z,1.3
2022-12-08T00:13:50.603Z,1.3
2022-12-08T00:14:50.747Z,1.3
2022-12-08T00:15:50.915Z,1.3
2022-12-08T00:16:51.441Z,1.3
2022-12-08T00:17:51.700Z,1.3
2022-12-08T00:18:51.869Z,1.3
2022-12-08T00:19:52.047Z,1.3
2022-12-08T00:20:52.187Z,1.3
2022-12-08T00:21:52.363Z,1.3
2022-12-08T00:22:52.518Z,1.3
2022-12-08T00:23:52.652Z,1.3
2022-12-08T00:24:52.782Z,1.3
2022-12-08T00:25:52.933Z,1.3
2022-12-08T00:26:53.081Z,1.3
2022-12-08T00:27:53.216Z,1.3
2022-12-08T00:28:53.373Z,1.3
2022-12-08T00:29:53.536Z,1.3
2022-12-08T00:30:53.714Z,1.3
2022-12-08T00:31:54.004Z,1.3
2022-12-08T00:32:54.305Z,1.3
2022-12-08T00:33:54.447Z,1.3
2022-12-08T00:34:54.585Z,1.3
2022-12-08T00:35:54.730Z,1.3
2022-12-08T00:36:54.907Z,1.3
2022-12-08T00:38:01.138Z,1.3
2022-12-08T00:39:01.371Z,1.3
2022-12-08T00:40:02.495Z,1.3
2022-12-08T00:41:03.183Z,1.3
2022-12-08T00:42:03.312Z,1.3
2022-12-08T00:43:03.488Z,1.3
2022-12-08T00:44:03.627Z,1.3
2022-12-08T00:45:03.763Z,1.3
2022-12-08T00:46:04.137Z,1.3
2022-12-08T00:47:04.389Z,1.3
2022-12-08T00:48:04.522Z,1.3
2022-12-08T00:49:04.661Z,1.3
2022-12-08T00:50:05.220Z,1.3
2022-12-08T00:51:06.027Z,1.3
2022-12-08T00:52:06.164Z,1.3
2022-12-08T00:53:06.308Z,1.3
2022-12-08T00:54:06.444Z,1.3
2022-12-08T00:55:06.577Z,1.3
2022-12-08T00:56:06.708Z,1.3
2022-12-08T00:57:06.842Z,1.3
2022-12-08T00:58:06.975Z,1.3
2022-12-08T00:59:07.107Z,1.3
2022-12-08T01:00:07.582Z,1.3
2022-12-08T01:01:07.874Z,1.3
2022-12-08T01:02:08.097Z,1.3
2022-12-08T01:03:08.304Z,1.3
2022-12-08T01:04:08.491Z,1.3
2022-12-08T01:05:08.627Z,1.3
2022-12-08T01:06:08.758Z,1.3
2022-12-08T01:07:08.895Z,1.3
2022-12-08T01:08:09.335Z,1.3
2022-12-08T01:09:09.665Z,1.3
2022-12-08T01:10:09.823Z,1.3
2022-12-08T01:11:09.954Z,1.3
2022-12-08T01:12:10.087Z,1.3
2022-12-08T01:13:10.226Z,1.3
2022-12-08T01:14:10.366Z,1.3
2022-12-08T01:15:10.508Z,1.3
2022-12-08T01:16:10.785Z,1.3
2022-12-08T01:17:11.091Z,1.3
2022-12-08T01:18:11.472Z,1.3
2022-12-08T01:19:11.940Z,1.3
2022-12-08T01:20:12.273Z,1.3
2022-12-08T01:21:12.412Z,1.3
2022-12-08T01:22:12.542Z,1.3
2022-12-08T01:23:12.681Z,1.3
2022-12-08T01:24:12.815Z,1.3
2022-12-08T01:25:12.948Z,1.3
2022-12-08T01:26:13.089Z,1.3
2022-12-08T01:27:13.220Z,1.3
2022-12-08T01:28:13.357Z,1.2
2022-12-08T01:29:13.487Z,1.2
2022-12-08T01:30:13.625Z,1.2
2022-12-08T01:31:13.985Z,1.2
2022-12-08T01:32:14.336Z,1.2
2022-12-08T01:33:14.493Z,1.2
2022-12-08T01:34:14.636Z,1.2
2022-12-08T01:35:14.774Z,1.2
2022-12-08T01:36:14.907Z,1.2
2022-12-08T01:37:15.044Z,1.2
2022-12-08T01:38:15.181Z,1.2
2022-12-08T01:39:15.316Z,1.2
2022-12-08T01:40:15.450Z,1.2
2022-12-08T01:41:15.585Z,1.2
2022-12-08T01:42:15.719Z,1.2
2022-12-08T01:43:15.858Z,1.2
2022-12-08T01:44:15.995Z,1.2
2022-12-08T01:45:16.151Z,1.2
2022-12-08T01:46:16.463Z,1.2
2022-12-08T01:47:16.750Z,1.2
2022-12-08T01:48:17.061Z,1.1
2022-12-08T01:49:17.285Z,1.1
2022-12-08T01:50:17.429Z,1.1
2022-12-08T01:51:17.572Z,1.1
2022-12-08T01:52:17.702Z,1.1
2022-12-08T01:53:17.834Z,1.1
2022-12-08T01:54:17.985Z,1.1
2022-12-08T01:55:18.123Z,1.1
2022-12-08T01:56:18.259Z,1.1
2022-12-08T01:57:18.393Z,1.1
2022-12-08T01:58:18.552Z,1
2022-12-08T01:59:18.688Z,1
2022-12-08T02:00:18.819Z,1
2022-12-08T02:01:19.105Z,1
2022-12-08T02:02:19.495Z,1
2022-12-08T02:03:19.703Z,1
2022-12-08T02:04:19.832Z,1
2022-12-08T02:05:20.032Z,1
2022-12-08T02:06:20.172Z,1
2022-12-08T02:07:20.309Z,1
2022-12-08T02:08:20.633Z,1
2022-12-08T02:09:20.952Z,1
2022-12-08T02:10:21.105Z,1
2022-12-08T02:11:21.234Z,1
2022-12-08T02:12:21.368Z,1
2022-12-08T02:13:21.502Z,1
2022-12-08T02:14:21.628Z,1
2022-12-08T02:15:21.766Z,1
2022-12-08T02:16:22.045Z,1
2022-12-08T02:17:22.311Z,1
2022-12-08T02:18:22.442Z,0.9
2022-12-08T02:19:31.849Z,0.9
2022-12-08T02:20:32.273Z,0.9
2022-12-08T02:21:32.418Z,0.9
2022-12-08T02:22:32.562Z,0.9
2022-12-08T02:23:32.696Z,0.9
2022-12-08T02:24:32.830Z,0.9
2022-12-08T02:25:32.967Z,0.9
2022-12-08T02:26:33.102Z,0.9
2022-12-08T02:27:33.232Z,0.9
2022-12-08T02:28:33.366Z,0.9
2022-12-08T02:29:33.501Z,0.9
2022-12-08T02:30:33.720Z,0.9
2022-12-08T02:31:33.976Z,0.9
2022-12-08T02:32:34.106Z,0.9
2022-12-08T02:33:34.310Z,0.9
2022-12-08T02:34:34.445Z,0.9
2022-12-08T02:35:34.584Z,0.9
2022-12-08T02:36:34.716Z,0.9
2022-12-08T02:37:34.852Z,0.9
2022-12-08T02:38:34.987Z,1
2022-12-08T02:39:35.126Z,1
2022-12-08T02:40:35.257Z,1
2022-12-08T02:41:35.403Z,1
2022-12-08T02:42:35.542Z,1
2022-12-08T02:43:35.667Z,1
2022-12-08T02:44:35.802Z,1
2022-12-08T02:45:35.940Z,1
2022-12-08T02:46:36.243Z,1
2022-12-08T02:47:36.466Z,1
2022-12-08T02:48:36.593Z,1
2022-12-08T02:49:36.732Z,1
2022-12-08T02:50:36.886Z,1
2022-12-08T02:51:37.024Z,1
2022-12-08T02:52:37.157Z,1
2022-12-08T02:53:37.470Z,1
2022-12-08T02:54:37.609Z,1
2022-12-08T02:55:37.749Z,1
2022-12-08T02:56:37.887Z,1
2022-12-08T02:57:38.026Z,1
2022-12-08T02:58:38.161Z,1.1
2022-12-08T02:59:38.294Z,1.1
2022-12-08T03:00:38.429Z,1.1
2022-12-08T03:01:38.680Z,1.1
2022-12-08T03:02:39.126Z,1.1
2022-12-08T03:03:39.374Z,1.1
2022-12-08T03:04:39.506Z,1.1
2022-12-08T03:05:39.641Z,1.1
2022-12-08T03:06:39.777Z,1.1
2022-12-08T03:07:40.065Z,1.1
2022-12-08T03:08:40.291Z,1.1
2022-12-08T03:09:40.422Z,1.1
2022-12-08T03:10:40.547Z,1.1
2022-12-08T03:11:40.688Z,1.1
2022-12-08T03:12:40.818Z,1.1
2022-12-08T03:13:40.951Z,1.1
2022-12-08T03:14:41.200Z,1.1
2022-12-08T03:15:41.423Z,1.1
2022-12-08T03:16:41.624Z,1.1
2022-12-08T03:17:41.767Z,1.1
2022-12-08T03:18:44.385Z,1.1
2022-12-08T03:19:44.542Z,1.1
2022-12-08T03:20:44.676Z,1.1
2022-12-08T03:21:44.808Z,1.1
2022-12-08T03:22:44.940Z,1.1
2022-12-08T03:23:45.079Z,1.1
2022-12-08T03:24:45.213Z,1.1
2022-12-08T03:25:45.358Z,1.1
2022-12-08T03:26:45.488Z,1.1
2022-12-08T03:27:45.624Z,1.1
2022-12-08T03:28:45.764Z,1.2
2022-12-08T03:29:45.899Z,1.2
2022-12-08T03:30:46.088Z,1.2
2022-12-08T03:31:46.259Z,1.2
2022-12-08T03:32:46.400Z,1.2
2022-12-08T03:33:46.532Z,1.2
2022-12-08T03:34:46.688Z,1.2
2022-12-08T03:35:46.824Z,1.2
2022-12-08T03:36:46.981Z,1.2
2022-12-08T03:37:47.121Z,1.2
2022-12-08T03:38:47.251Z,1.2
2022-12-08T03:39:47.383Z,1.2
2022-12-08T03:40:47.515Z,1.2
2022-12-08T03:41:47.651Z,1.2
2022-12-08T03:42:47.799Z,1.2
2022-12-08T03:43:47.967Z,1.2
2022-12-08T03:44:48.095Z,1.2
2022-12-08T03:45:48.228Z,1.2
2022-12-08T03:46:48.570Z,1.2
2022-12-08T03:47:48.724Z,1.2
2022-12-08T03:48:48.889Z,1.2
2022-12-08T03:49:49.047Z,1.2
2022-12-08T03:50:49.213Z,1.2
2022-12-08T03:51:49.363Z,1.2
2022-12-08T03:52:49.518Z,1.2
2022-12-08T03:53:49.674Z,1.2
2022-12-08T03:54:49.822Z,1.2
2022-12-08T03:55:49.994Z,1.2
2022-12-08T03:56:50.147Z,1.2
2022-12-08T03:57:50.305Z,1.2
2022-12-08T03:58:50.461Z,1.2
2022-12-08T03:59:50.612Z,1.2
2022-12-08T04:00:50.766Z,1.2
2022-12-08T04:01:51.056Z,1.2
2022-12-08T04:02:51.417Z,1.2
2022-12-08T04:03:51.711Z,1.2
2022-12-08T04:04:51.876Z,1.2
2022-12-08T04:05:52.034Z,1.2
2022-12-08T04:06:52.190Z,1.2
2022-12-08T04:07:52.407Z,1.3
2022-12-08T04:08:52.689Z,1.3
2022-12-08T04:09:52.861Z,1.3
2022-12-08T04:10:53.015Z,1.3
2022-12-08T04:11:53.176Z,1.3
2022-12-08T04:12:53.324Z,1.3
2022-12-08T04:13:53.476Z,1.3
2022-12-08T04:14:53.630Z,1.3
2022-12-08T04:15:53.999Z,1.3
2022-12-08T04:16:54.236Z,1.3
2022-12-08T04:17:54.387Z,1.3
2022-12-08T04:18:54.551Z,1.3
2022-12-08T04:19:54.706Z,1.3
2022-12-08T04:20:54.858Z,1.3
2022-12-08T04:21:55.015Z,1.3
2022-12-08T04:22:55.356Z,1.3
2022-12-08T04:24:01.648Z,1.3
2022-12-08T04:25:01.916Z,1.3
2022-12-08T04:26:02.096Z,1.3
2022-12-08T04:27:02.280Z,1.3
2022-12-08T04:28:02.429Z,1.3
2022-12-08T04:29:02.593Z,1.3
2022-12-08T04:30:03.835Z,1.3
2022-12-08T04:31:04.717Z,1.3
2022-12-08T04:32:04.945Z,1.3
2022-12-08T04:33:05.102Z,1.3
2022-12-08T04:34:05.252Z,1.3
2022-12-08T04:35:05.422Z,1.3
2022-12-08T04:36:05.589Z,1.3
2022-12-08T04:37:05.745Z,1.3
2022-12-08T04:38:05.897Z,1.3
2022-12-08T04:39:06.060Z,1.3
2022-12-08T04:40:06.783Z,1.3
2022-12-08T04:41:07.566Z,1.3
2022-12-08T04:42:07.716Z,1.3
2022-12-08T04:43:07.884Z,1.3
2022-12-08T04:44:08.045Z,1.3
2022-12-08T04:45:08.207Z,1.3
2022-12-08T04:46:08.527Z,1.3
2022-12-08T04:47:08.964Z,1.3
2022-12-08T04:48:09.274Z,1.3
2022-12-08T04:49:09.423Z,1.3
2022-12-08T04:50:09.578Z,1.3
2022-12-08T04:51:09.736Z,1.3
2022-12-08T04:52:09.889Z,1.3
2022-12-08T04:53:10.042Z,1.3
2022-12-08T04:54:10.198Z,1.3
2022-12-08T04:55:10.349Z,1.3
2022-12-08T04:56:10.506Z,1.3
2022-12-08T04:57:10.664Z,1.3
2022-12-08T04:58:10.817Z,1.2
2022-12-08T04:59:10.967Z,1.2
2022-12-08T05:00:11.123Z,1.2
2022-12-08T05:01:11.416Z,1.2
2022-12-08T05:02:11.952Z,1.2
2022-12-08T05:03:12.365Z,1.2
2022-12-08T05:04:12.524Z,1.2
2022-12-08T05:05:12.677Z,1.2
2022-12-08T05:06:12.837Z,1.2
2022-12-08T05:07:12.998Z,1.2
2022-12-08T05:08:13.309Z,1.2
2022-12-08T05:09:13.704Z,1.2
2022-12-08T05:10:13.861Z,1.2
2022-12-08T05:11:14.026Z,1.2
2022-12-08T05:12:14.187Z,1.2
2022-12-08T05:13:14.341Z,1.2
2022-12-08T05:14:14.489Z,1.2
2022-12-08T05:15:14.656Z,1.2
2022-12-08T05:16:15.087Z,1.2
2022-12-08T05:17:15.359Z,1.2
2022-12-08T05:18:15.509Z,1.2
2022-12-08T05:19:15.667Z,1.2
2022-12-08T05:20:15.818Z,1.2
2022-12-08T05:21:15.965Z,1.2
2022-12-08T05:22:16.119Z,1.2
2022-12-08T05:23:16.268Z,1.2
2022-12-08T05:24:16.432Z,1.2
2022-12-08T05:25:16.571Z,1.2
2022-12-08T05:26:16.723Z,1.2
2022-12-08T05:27:16.877Z,1.2
2022-12-08T05:28:42.896Z,1.2
2022-12-08T05:29:44.332Z,1.2
2022-12-08T05:30:44.491Z,1.2
2022-12-08T05:31:44.827Z,1.2
2022-12-08T05:32:45.095Z,1.2
2022-12-08T05:33:45.252Z,1.2
2022-12-08T05:34:45.413Z,1.2
2022-12-08T05:35:45.576Z,1.2
2022-12-08T05:36:45.733Z,1.2
2022-12-08T05:37:45.883Z,1.2
2022-12-08T05:38:46.040Z,1.1
2022-12-08T05:39:46.191Z,1.1
2022-12-08T05:40:46.343Z,1.1
2022-12-08T05:41:46.499Z,1.1
2022-12-08T05:42:46.657Z,1.1
2022-12-08T05:43:46.822Z,1.1
2022-12-08T05:44:46.976Z,1.1
2022-12-08T05:45:47.257Z,1.1
2022-12-08T05:46:47.483Z,1.1
2022-12-08T05:47:47.632Z,1.1
2022-12-08T05:48:47.781Z,1
2022-12-08T05:49:47.937Z,1
2022-12-08T05:50:48.102Z,1
2022-12-08T05:51:48.263Z,1
2022-12-08T05:52:48.420Z,1
2022-12-08T05:53:48.579Z,1
2022-12-08T05:54:48.733Z,1
2022-12-08T05:55:48.890Z,1
2022-12-08T05:56:49.052Z,1
2022-12-08T05:57:49.201Z,0.9
2022-12-08T05:58:49.386Z,0.9
2022-12-08T05:59:49.623Z,0.9
2022-12-08T06:00:49.776Z,0.9
2022-12-08T06:01:50.012Z,0.9
2022-12-08T06:02:50.507Z,0.9
2022-12-08T06:03:50.997Z,0.9
2022-12-08T06:04:51.175Z,0.9
2022-12-08T06:05:51.412Z,0.9
2022-12-08T06:06:51.564Z,0.9
2022-12-08T06:07:51.814Z,0.9
2022-12-08T06:08:51.983Z,0.9
2022-12-08T06:09:52.128Z,0.9
2022-12-08T06:10:52.362Z,0.9
2022-12-08T06:11:52.514Z,0.9
2022-12-08T06:12:52.672Z,0.9
2022-12-08T06:13:52.828Z,0.9
2022-12-08T06:14:52.987Z,0.9
2022-12-08T06:15:53.146Z,0.9
2022-12-08T06:16:53.514Z,0.9
2022-12-08T06:17:53.822Z,0.8
2022-12-08T06:18:53.975Z,0.8
2022-12-08T06:19:54.136Z,0.8
2022-12-08T06:20:54.289Z,0.8
2022-12-08T06:21:54.453Z,0.8
2022-12-08T06:22:54.610Z,0.8
2022-12-08T06:23:54.772Z,0.8
2022-12-08T06:24:54.951Z,0.8
2022-12-08T06:25:55.110Z,0.8
2022-12-08T06:26:55.264Z,0.8
2022-12-08T06:27:55.426Z,0.8
2022-12-08T06:28:55.583Z,0.8
2022-12-08T06:29:55.735Z,0.8
2022-12-08T06:30:55.886Z,0.8
2022-12-08T06:31:56.176Z,0.8
2022-12-08T06:32:56.507Z,0.8
2022-12-08T06:33:56.659Z,0.8
2022-12-08T06:34:56.816Z,0.8
2022-12-08T06:35:56.971Z,0.8
2022-12-08T06:36:57.122Z,0.8
2022-12-08T06:37:57.276Z,0.9
2022-12-08T06:38:57.422Z,0.9
2022-12-08T06:39:57.566Z,0.9
2022-12-08T06:40:57.719Z,0.9
2022-12-08T06:41:57.876Z,0.9
2022-12-08T06:42:58.025Z,0.9
2022-12-08T06:43:58.178Z,0.9
2022-12-08T06:44:58.337Z,0.9
2022-12-08T06:45:58.606Z,0.9
2022-12-08T06:46:58.867Z,0.9
2022-12-08T06:47:59.018Z,0.9
2022-12-08T06:48:59.241Z,0.9
2022-12-08T06:49:59.402Z,0.9
2022-12-08T06:50:59.557Z,0.9
2022-12-08T06:51:59.709Z,0.9
2022-12-08T06:53:05.906Z,0.9
2022-12-08T06:54:06.073Z,1
2022-12-08T06:55:06.224Z,1
2022-12-08T06:56:06.391Z,1
2022-12-08T06:57:06.545Z,1
2022-12-08T06:58:06.700Z,1
2022-12-08T06:59:06.855Z,1
2022-12-08T07:00:07.947Z,1
2022-12-08T07:01:09.032Z,1
2022-12-08T07:02:09.507Z,1
2022-12-08T07:03:09.759Z,1
2022-12-08T07:04:09.916Z,1
2022-12-08T07:05:10.067Z,1
2022-12-08T07:06:10.218Z,1
2022-12-08T07:07:10.375Z,1
2022-12-08T07:08:10.720Z,1
2022-12-08T07:09:11.080Z,1
2022-12-08T07:10:11.232Z,1
2022-12-08T07:11:18.198Z,1
2022-12-08T07:12:22.646Z,1.1
2022-12-08T07:13:22.801Z,1.1
2022-12-08T07:14:22.954Z,1.1
2022-12-08T07:15:23.105Z,1.1
2022-12-08T07:16:23.344Z,1.1
2022-12-08T07:17:23.574Z,1.1
2022-12-08T07:18:23.729Z,1
2022-12-08T07:19:23.880Z,1
2022-12-08T07:20:24.038Z,1
2022-12-08T07:21:24.191Z,1
2022-12-08T07:22:24.346Z,1
2022-12-08T07:23:24.504Z,1
2022-12-08T07:24:24.654Z,1
2022-12-08T07:25:24.807Z,1
2022-12-08T07:26:24.982Z,1
2022-12-08T07:27:25.146Z,1
2022-12-08T07:28:25.302Z,1
2022-12-08T07:29:26.645Z,1
2022-12-08T07:30:26.872Z,1
2022-12-08T07:31:27.277Z,1
2022-12-08T07:32:27.497Z,1
2022-12-08T07:33:27.655Z,1
2022-12-08T07:34:27.821Z,1
2022-12-08T07:35:27.977Z,1
2022-12-08T07:36:28.130Z,1
2022-12-08T07:37:28.280Z,1
2022-12-08T07:38:28.426Z,1
2022-12-08T07:39:28.575Z,1
2022-12-08T07:40:28.728Z,1
2022-12-08T07:41:28.886Z,1
2022-12-08T07:42:29.063Z,1
2022-12-08T07:43:29.226Z,1
2022-12-08T07:44:29.382Z,1
2022-12-08T07:45:32.058Z,1
2022-12-08T07:46:32.382Z,1
2022-12-08T07:47:32.814Z,1
2022-12-08T07:48:32.967Z,1
2022-12-08T07:49:33.123Z,1
2022-12-08T07:50:33.280Z,1
2022-12-08T07:51:33.440Z,1
2022-12-08T07:52:33.602Z,1
2022-12-08T07:53:33.755Z,1
2022-12-08T07:54:33.908Z,1
2022-12-08T07:55:34.060Z,1
2022-12-08T07:56:34.218Z,1
2022-12-08T07:57:34.373Z,1
2022-12-08T07:58:34.526Z,1
2022-12-08T07:59:34.681Z,1
2022-12-08T08:00:34.923Z,1
2022-12-08T08:01:35.572Z,1
2022-12-08T08:02:36.389Z,1
2022-12-08T08:03:36.870Z,1
2022-12-08T08:04:37.195Z,1
2022-12-08T08:05:37.469Z,1
2022-12-08T08:06:37.625Z,1
2022-12-08T08:07:37.889Z,1
2022-12-08T08:08:38.169Z,1.1
2022-12-08T08:09:38.342Z,1.1
2022-12-08T08:10:38.524Z,1.1
2022-12-08T08:11:38.741Z,1.1
2022-12-08T08:12:38.890Z,1.1
2022-12-08T08:13:39.048Z,1.1
2022-12-08T08:14:39.204Z,1.1
2022-12-08T08:15:39.615Z,1.1
2022-12-08T08:16:40.256Z,1.1
2022-12-08T08:17:40.808Z,1.1
2022-12-08T08:18:41.119Z,1.2
2022-12-08T08:19:41.276Z,1.2
2022-12-08T08:20:41.425Z,1.2
2022-12-08T08:21:46.657Z,1.2
2022-12-08T08:22:47.017Z,1.3
2022-12-08T08:23:47.164Z,1.3
2022-12-08T08:24:47.327Z,1.3
2022-12-08T08:25:47.574Z,1.3
2022-12-08T08:26:47.834Z,1.3
2022-12-08T08:27:47.995Z,1.4
2022-12-08T08:28:48.170Z,1.4
2022-12-08T08:29:48.341Z,1.4
2022-12-08T08:30:48.621Z,1.4
2022-12-08T08:31:48.873Z,1.4
2022-12-08T08:32:49.027Z,1.4
2022-12-08T08:33:49.270Z,1.4
2022-12-08T08:34:49.417Z,1.4
2022-12-08T08:35:49.570Z,1.4
2022-12-08T08:36:49.797Z,1.4
2022-12-08T08:37:50.058Z,1.5
2022-12-08T08:38:50.226Z,1.5
2022-12-08T08:39:50.388Z,1.5
2022-12-08T08:40:50.542Z,1.5
2022-12-08T08:41:50.696Z,1.5
2022-12-08T08:42:50.855Z,1.5
2022-12-08T08:43:51.020Z,1.5
2022-12-08T08:44:51.175Z,1.5
2022-12-08T08:45:51.327Z,1.5
2022-12-08T08:46:51.598Z,1.5
2022-12-08T08:47:51.818Z,1.7
2022-12-08T08:48:51.978Z,1.7
2022-12-08T08:49:52.138Z,1.7
2022-12-08T08:50:52.294Z,1.7
2022-12-08T08:51:52.448Z,1.7
2022-12-08T08:52:52.622Z,1.7
2022-12-08T08:53:52.780Z,1.7
2022-12-08T08:54:52.950Z,1.7
2022-12-08T08:55:53.107Z,1.7
2022-12-08T08:56:53.260Z,1.7
2022-12-08T08:57:53.428Z,1.9
2022-12-08T08:58:53.585Z,1.9
2022-12-08T08:59:53.753Z,1.9
2022-12-08T09:00:53.908Z,1.9
2022-12-08T09:01:54.415Z,1.9
2022-12-08T09:02:54.782Z,1.9
2022-12-08T09:03:54.957Z,1.9
2022-12-08T09:04:55.346Z,1.9
2022-12-08T09:05:55.868Z,1.9
2022-12-08T09:06:56.157Z,1.9
2022-12-08T09:07:56.396Z,2.3
2022-12-08T09:08:56.633Z,2.3
2022-12-08T09:10:02.413Z,2.3
2022-12-08T09:11:02.840Z,2.4
2022-12-08T09:12:02.996Z,2.4
2022-12-08T09:13:03.154Z,2.4
2022-12-08T09:14:03.334Z,2.4
2022-12-08T09:15:03.520Z,2.4
2022-12-08T09:16:03.900Z,2.4
2022-12-08T09:17:04.162Z,2.4
2022-12-08T09:18:04.321Z,2.7
2022-12-08T09:19:04.472Z,2.7
2022-12-08T09:20:05.422Z,2.7
2022-12-08T09:21:06.077Z,2.7
2022-12-08T09:22:06.291Z,2.7
2022-12-08T09:23:06.444Z,2.7
2022-12-08T09:24:06.600Z,2.7
2022-12-08T09:25:06.757Z,2.7
2022-12-08T09:26:06.926Z,2.7
2022-12-08T09:27:07.099Z,2.7
2022-12-08T09:28:07.319Z,3.2
2022-12-08T09:29:07.552Z,3.2
2022-12-08T09:30:08.032Z,3.2
2022-12-08T09:31:08.280Z,3.2
2022-12-08T09:32:08.531Z,3.2
2022-12-08T09:33:08.695Z,3.2
2022-12-08T09:34:08.862Z,3.2
2022-12-08T09:35:09.014Z,3.2
2022-12-08T09:36:09.163Z,3.2
2022-12-08T09:37:09.322Z,3.2
2022-12-08T09:38:09.480Z,3.5
2022-12-08T09:39:09.637Z,3.5
2022-12-08T09:40:09.792Z,3.5
2022-12-08T09:41:09.956Z,3.5
2022-12-08T09:42:10.147Z,3.5
2022-12-08T09:43:10.306Z,3.5
2022-12-08T09:44:10.456Z,3.5
2022-12-08T09:45:10.609Z,3.5
2022-12-08T09:46:10.985Z,3.5
2022-12-08T09:47:11.293Z,3.5
2022-12-08T09:48:11.448Z,3.8
2022-12-08T09:49:11.598Z,3.8
2022-12-08T09:50:11.761Z,3.8
2022-12-08T09:51:11.923Z,3.8
2022-12-08T09:52:12.079Z,3.8
2022-12-08T09:53:12.386Z,3.8
2022-12-08T09:54:12.669Z,3.8
2022-12-08T09:55:13.030Z,3.8
2022-12-08T09:56:13.194Z,3.8
2022-12-08T09:57:13.353Z,3.8
2022-12-08T09:58:13.519Z,3.9
2022-12-08T09:59:13.667Z,3.9
2022-12-08T10:00:13.821Z,3.9
2022-12-08T10:01:13.978Z,3.9
2022-12-08T10:02:14.376Z,3.9
2022-12-08T10:03:17.232Z,3.9
2022-12-08T10:04:17.435Z,3.9
2022-12-08T10:05:17.717Z,3.9
2022-12-08T10:06:18.011Z,3.9
2022-12-08T10:07:18.192Z,3.9
2022-12-08T10:08:18.524Z,4.1
2022-12-08T10:09:23.122Z,4.1
2022-12-08T10:10:23.350Z,4.1
2022-12-08T10:11:23.505Z,4.1
2022-12-08T10:12:23.666Z,4.1
2022-12-08T10:13:23.820Z,4.1
2022-12-08T10:14:23.971Z,4.1
2022-12-08T10:15:24.129Z,4.1
2022-12-08T10:16:30.313Z,4.1
2022-12-08T10:17:30.669Z,4.19
2022-12-08T10:18:30.833Z,4.3
2022-12-08T10:19:30.981Z,4.3
2022-12-08T10:20:31.134Z,4.3
2022-12-08T10:21:31.295Z,4.3
2022-12-08T10:22:31.454Z,4.3
2022-12-08T10:23:31.608Z,4.3
2022-12-08T10:24:31.766Z,4.3
2022-12-08T10:25:31.920Z,4.3
2022-12-08T10:26:32.087Z,4.3
2022-12-08T10:27:32.249Z,4.3
2022-12-08T10:28:32.414Z,4.6
2022-12-08T10:29:32.577Z,4.6
2022-12-08T10:30:32.811Z,4.6
2022-12-08T10:31:33.246Z,4.6
2022-12-08T10:32:33.620Z,4.6
2022-12-08T10:33:33.784Z,4.6
2022-12-08T10:34:33.941Z,4.6
2022-12-08T10:35:34.113Z,4.6
2022-12-08T10:36:34.273Z,5.6
2022-12-08T10:37:34.427Z,5.6
2022-12-08T10:38:34.586Z,5.6
2022-12-08T10:39:34.747Z,5.6
2022-12-08T10:40:43.935Z,5.6
2022-12-08T10:41:46.078Z,6.6
2022-12-08T10:42:46.232Z,6.6
2022-12-08T10:43:46.388Z,6.6
2022-12-08T10:44:46.537Z,6.6
2022-12-08T10:45:46.690Z,6.6
2022-12-08T10:46:47.132Z,6.6
2022-12-08T10:47:55.444Z,7.6
2022-12-08T10:48:55.801Z,7.8
2022-12-08T10:49:55.962Z,7.8
2022-12-08T10:50:56.141Z,7.8
2022-12-08T10:51:56.301Z,7.8
2022-12-08T10:52:56.454Z,8.6
2022-12-08T10:53:56.612Z,8.6
2022-12-08T10:54:56.779Z,8.6
2022-12-08T10:55:57.015Z,8.6
2022-12-08T10:56:57.184Z,8.6
2022-12-08T10:57:57.360Z,8.6
2022-12-08T10:58:57.515Z,8.6
2022-12-08T10:59:57.667Z,9.6
2022-12-08T11:00:57.939Z,9.6
2022-12-08T11:01:58.715Z,9.6
2022-12-08T11:02:59.435Z,9.6
2022-12-08T11:03:59.909Z,9.6
2022-12-08T11:05:00.079Z,9.6
2022-12-08T11:06:10.683Z,9.6
2022-12-08T11:07:11.348Z,9.8
2022-12-08T11:08:11.602Z,9.8
2022-12-08T11:09:11.960Z,9.8
2022-12-08T11:10:12.121Z,9.6
2022-12-08T11:11:12.272Z,9.6
2022-12-08T11:12:12.426Z,9.6
2022-12-08T11:13:12.590Z,9.6
2022-12-08T11:14:12.761Z,9.6
2022-12-08T11:15:12.909Z,9.6
2022-12-08T11:16:13.162Z,9.6
2022-12-08T11:17:13.509Z,9.6
2022-12-08T11:18:13.672Z,9.6
2022-12-08T11:19:13.825Z,9.6
2022-12-08T11:20:13.982Z,9.3
2022-12-08T11:21:14.157Z,9.3
2022-12-08T11:22:14.313Z,9.3
2022-12-08T11:23:14.464Z,9.3
2022-12-08T11:24:14.627Z,9.3
2022-12-08T11:25:14.777Z,9.3
2022-12-08T11:26:14.930Z,9.3
2022-12-08T11:27:15.084Z,9.3
2022-12-08T11:28:15.243Z,9.3
2022-12-08T11:29:15.396Z,9.3
2022-12-08T11:30:16.191Z,8.6
2022-12-08T11:31:17.095Z,8.6
2022-12-08T11:32:17.368Z,8.6
2022-12-08T11:33:17.522Z,8.6
2022-12-08T11:34:17.677Z,8.6
2022-12-08T11:35:17.831Z,8.6
2022-12-08T11:36:17.988Z,8.6
2022-12-08T11:37:18.149Z,8.6
2022-12-08T11:38:22.928Z,8.6
2022-12-08T11:39:23.348Z,7.6
2022-12-08T11:40:23.498Z,7.6
2022-12-08T11:41:23.662Z,7.6
2022-12-08T11:42:23.829Z,7.6
2022-12-08T11:43:23.996Z,7.6
2022-12-08T11:44:24.161Z,7.6
2022-12-08T11:45:24.315Z,7.6
2022-12-08T11:46:24.627Z,7.6
2022-12-08T11:47:24.871Z,7.6
2022-12-08T11:48:25.031Z,7.6
2022-12-08T11:49:25.213Z,6.9
2022-12-08T11:50:25.380Z,6.9
2022-12-08T11:51:25.531Z,6.9
2022-12-08T11:52:25.680Z,6.9
2022-12-08T11:53:25.835Z,6.9
2022-12-08T11:54:25.992Z,6.9
2022-12-08T11:55:26.145Z,6.9
2022-12-08T11:56:26.295Z,6.9
2022-12-08T11:57:26.519Z,6.9
2022-12-08T11:58:27.017Z,6.9
2022-12-08T11:59:27.292Z,6.4
2022-12-08T12:00:27.542Z,6.4
2022-12-08T12:01:27.697Z,6.4
2022-12-08T12:02:28.027Z,6.4
2022-12-08T12:03:28.442Z,6.4
2022-12-08T12:04:28.689Z,6.4
2022-12-08T12:06:09.061Z,6.4
2022-12-08T12:07:37.839Z,6.3
2022-12-08T12:08:38.040Z,6.3
2022-12-08T12:09:38.202Z,6.3
2022-12-08T12:10:38.356Z,6.3
2022-12-08T12:11:38.504Z,6.3
2022-12-08T12:12:40.282Z,6.3
2022-12-08T12:13:40.493Z,6.3
2022-12-08T12:14:40.720Z,6.3
2022-12-08T12:15:40.886Z,6.3
2022-12-08T12:16:41.195Z,6.3
2022-12-08T12:17:41.488Z,6.3
2022-12-08T12:18:41.641Z,6.3
2022-12-08T12:19:41.805Z,6.1
2022-12-08T12:20:41.953Z,6.1
2022-12-08T12:21:42.099Z,6.1
2022-12-08T12:22:42.293Z,6.1
2022-12-08T12:23:42.477Z,6.1
2022-12-08T12:24:42.628Z,6.1
2022-12-08T12:25:42.783Z,6.1
2022-12-08T12:26:42.932Z,6.1
2022-12-08T12:27:43.086Z,6.1
2022-12-08T12:28:43.241Z,6.1
2022-12-08T12:29:43.398Z,6.6
2022-12-08T12:30:43.645Z,6.6
2022-12-08T12:31:43.864Z,6.6
2022-12-08T12:32:44.017Z,6.6
2022-12-08T12:33:44.185Z,6.6
2022-12-08T12:34:44.338Z,6.6
2022-12-08T12:35:44.489Z,6.6
2022-12-08T12:36:44.642Z,6.6
2022-12-08T12:37:44.867Z,6.6
2022-12-08T12:38:45.104Z,6.6
2022-12-08T12:39:45.258Z,6.8
2022-12-08T12:40:45.410Z,6.8
2022-12-08T12:41:45.567Z,6.8
2022-12-08T12:42:45.722Z,6.8
2022-12-08T12:43:45.878Z,6.8
2022-12-08T12:44:46.034Z,6.8
2022-12-08T12:45:46.280Z,6.8
2022-12-08T12:46:46.588Z,6.8
2022-12-08T12:47:56.161Z,6.8
2022-12-08T12:48:57.433Z,6.6
2022-12-08T12:49:57.591Z,6.6
2022-12-08T12:50:57.740Z,6.6
2022-12-08T12:51:57.891Z,6.6
2022-12-08T12:52:58.051Z,6.6
2022-12-08T12:53:58.215Z,6.6
2022-12-08T12:54:58.377Z,6.6
2022-12-08T12:55:58.526Z,6.6
2022-12-08T12:56:58.678Z,6.6
2022-12-08T12:57:58.832Z,6.6
2022-12-08T12:58:58.991Z,7.1
2022-12-08T12:59:59.145Z,7.1
2022-12-08T13:00:59.375Z,7.1
2022-12-08T13:01:59.640Z,7.1
2022-12-08T13:02:59.926Z,7.1
2022-12-08T13:04:00.266Z,7.1
2022-12-08T13:05:00.416Z,7.1
2022-12-08T13:06:00.588Z,7.1
2022-12-08T13:07:00.771Z,7.1
2022-12-08T13:08:01.057Z,8.1
2022-12-08T13:09:01.418Z,8.1
2022-12-08T13:10:01.806Z,8.1
2022-12-08T13:11:02.194Z,8.1
2022-12-08T13:12:02.365Z,8.1
2022-12-08T13:13:02.529Z,8.1
2022-12-08T13:14:02.682Z,8.1
2022-12-08T13:15:02.844Z,9.1
2022-12-08T13:16:18.746Z,9.1
2022-12-08T13:17:19.919Z,9.3
2022-12-08T13:18:20.169Z,9.3
2022-12-08T13:19:20.324Z,9.3
2022-12-08T13:20:20.477Z,9.3
2022-12-08T13:21:20.628Z,9.3
2022-12-08T13:22:20.785Z,10.1
2022-12-08T13:23:20.940Z,10.1
2022-12-08T13:24:21.162Z,10.1
2022-12-08T13:25:21.321Z,10.1
2022-12-08T13:26:21.517Z,10.1
2022-12-08T13:27:21.684Z,10.1
2022-12-08T13:28:21.838Z,10.1
2022-12-08T13:29:21.994Z,11.1
2022-12-08T13:30:22.155Z,11.1
2022-12-08T13:31:22.397Z,11.1
2022-12-08T13:32:22.599Z,11.1
2022-12-08T13:33:22.754Z,11.1
2022-12-08T13:34:22.909Z,11.1
2022-12-08T13:35:23.067Z,11.1
2022-12-08T13:36:23.221Z,11.1
2022-12-08T13:37:23.401Z,11.1
2022-12-08T13:38:23.567Z,11.1
2022-12-08T13:39:23.729Z,11.8
2022-12-08T13:40:23.893Z,11.8
2022-12-08T13:41:24.043Z,11.8
2022-12-08T13:42:24.201Z,11.8
2022-12-08T13:43:24.352Z,11.8
2022-12-08T13:45:24.454Z,11.8
2022-12-08T13:48:30.455Z,12.1
2022-12-08T13:57:35.500Z,12.6
2022-12-08T13:58:35.742Z,12.6
2022-12-08T13:59:35.899Z,12.6
2022-12-08T14:00:36.102Z,12.6
2022-12-08T14:01:36.447Z,12.5
2022-12-08T14:02:43.728Z,12.5
2022-12-08T14:04:37.445Z,12.4
2022-12-08T14:06:17.656Z,12.2
2022-12-08T14:07:18.167Z,12.2
2022-12-08T14:09:00.265Z,12.2
2022-12-08T14:10:10.073Z,11.9
2022-12-08T14:11:10.237Z,11.9
2022-12-08T14:12:10.395Z,11.7
2022-12-08T14:13:10.553Z,11.7